Los Angeles, California
Traffic Map
Current Weather Conditions
Los Angeles, California
Overcast
Overcast
19°
Feels Like: 19°
Wind Chill: 19° Ceiling: 4900
Heat Index: 19° Visibility: 10mi
Dew Point: Wind: 3mph
Humidity: 48% Direction: ° ()
Pressure: 29.93in Gusts: 0mph
Raw Report DataKCQT 212047Z AUTO VRB03KT 10SM OVC049 19/08 A2993 RMK AO2 SLP133 T01890078 58006
Traffic Incident Summary
Active as of:
Severity:
Category:
InformationThere was an issue retrieving the traffic information for this location. Please try a different location or try again shortly.
Advertisements
Track Severe Weather on mobile